CPX436 Details

Departure: Salt Lake City International Airport (KSLC)
Arrival: Sacramento International Airport (KSMF)
Route: DEZRT1 BAM LLC ANAHO SLMMR3


Current Weather Information
KSLC 232254Z 14004KT 10SM -RA FEW028 SCT046 BKN070 09/04 A2980 RMK AO2 LTG DSNT SE RAE28B51 SLP072 CB DSNT SE-SW BINOVC P0002 T00940044 VISNO NW RNWY
KSMF 232253Z 07006KT 10SM FEW055 24/11 A2978 RMK AO2 SLP083 T02440111